Terminal Aerodrome Forecast
Issued by NWS

Home | Current Version | Previous Version | Text Only | Print | Product List | Glossary On
Versions: 1 2 3 4 5 6 7 8 9 10 11 12 13 14 15 16
000
FTUS42 KMLB 011100
TAFSFB
TAF
KSFB 011132Z 0112/0212 19004KT P6SM FEW035 SCT250
     FM011500 21006KT P6SM SCT035 SCT250
     FM012000 12007KT P6SM VCTS BKN040CB
     FM020000 13005KT P6SM SCT040 BKN100 OVC120=

USA.gov is the U.S. government's official web portal to all federal, state and local government web resources and services.